Time;durP1;ratioP1;P1;durP2;ratioP2;P2;SDS_P1;SDS_P2;PMS_P1;PMS_P2;Temp;Humidity;BMP_temperature;BMP_pressure;BME280_temperature;BME280_humidity;BME280_pressure;Samples;Min_cycle;Max_cycle;Signal;HPM_P1;HPM_P2
2023/07/13 00:00:16;;;;;;;0.70;0.50;;;19.40;82.60;;;19.79;77.43;100928.69;5219343;28;20041;-48
2023/07/13 00:02:48;;;;;;;0.50;0.50;;;19.40;82.90;;;19.75;78.13;100932.22;5219154;28;20558;-48
2023/07/13 00:05:21;;;;;;;1.75;0.50;;;19.30;83.40;;;19.70;79.06;100928.72;5202381;28;20148;-49
2023/07/13 00:07:55;;;;;;;0.70;0.52;;;19.30;84.10;;;19.64;79.01;100934.00;5202035;28;20050;-50
2023/07/13 00:10:28;;;;;;;0.60;0.50;;;19.20;84.10;;;19.58;79.53;100934.00;5202188;28;20053;-49
2023/07/13 00:13:00;;;;;;;1.48;0.60;;;19.10;84.50;;;19.50;80.39;100931.31;5202044;28;20053;-48
2023/07/13 00:15:33;;;;;;;0.98;0.60;;;19.10;85.30;;;19.44;81.28;100931.31;5202207;28;20399;-48
2023/07/13 00:18:05;;;;;;;1.17;0.60;;;19.00;85.90;;;19.40;82.08;100928.66;5202105;28;20049;-49
2023/07/13 00:20:38;;;;;;;1.13;0.50;;;18.90;86.60;;;19.37;81.81;100931.31;5202122;28;20046;-49
2023/07/13 00:23:11;;;;;;;0.77;0.50;;;18.90;87.30;;;19.35;82.16;100925.13;5202094;28;20038;-48
2023/07/13 00:25:44;;;;;;;0.75;0.55;;;18.90;87.00;;;19.35;82.06;100919.84;5201975;28;20536;-48
2023/07/13 00:28:16;;;;;;;0.95;0.45;;;18.90;86.90;;;19.34;81.82;100923.38;5201357;28;20051;-48
2023/07/13 00:30:50;;;;;;;1.52;0.60;;;18.90;87.00;;;19.33;81.15;100929.53;5201923;28;20511;-49
2023/07/13 00:33:22;;;;;;;1.30;0.70;;;18.80;86.50;;;19.34;81.55;100923.38;5201614;28;20509;-48
2023/07/13 00:35:56;;;;;;;0.82;0.65;;;18.80;86.70;;;19.33;81.76;100926.91;5201672;28;20050;-47
2023/07/13 00:38:30;;;;;;;1.38;0.80;;;18.90;87.20;;;19.31;82.15;100924.25;5201443;28;20407;-49
2023/07/13 00:41:04;;;;;;;1.05;0.50;;;18.90;87.50;;;19.29;82.17;100925.13;5201501;28;20127;-49
2023/07/13 00:43:37;;;;;;;0.65;0.40;;;18.80;87.40;;;19.28;82.87;100912.78;5201451;28;20041;-48
2023/07/13 00:46:21;;;;;;;1.05;0.60;;;18.80;88.10;;;19.25;83.26;100919.84;5201421;28;20489;-50
2023/07/13 00:48:58;;;;;;;1.05;0.60;;;18.80;88.50;;;19.24;82.48;100912.81;5186711;28;20049;-48
2023/07/13 00:51:37;;;;;;;1.30;0.60;;;18.80;88.00;;;19.24;81.90;100911.94;5201407;28;20044;-47
2023/07/13 00:54:14;;;;;;;2.30;0.80;;;18.80;87.60;;;19.24;80.86;100915.44;5201332;28;20045;-49
2023/07/13 00:56:51;;;;;;;2.13;0.70;;;18.80;86.90;;;19.24;80.21;100910.16;5201354;28;20060;-49
2023/07/13 00:59:23;;;;;;;1.20;0.73;;;18.80;86.60;;;19.24;79.62;100907.53;5201438;28;20045;-49
2023/07/13 01:01:56;;;;;;;1.50;0.70;;;18.80;86.70;;;19.25;79.58;100911.91;5201229;28;20091;-48
2023/07/13 01:04:29;;;;;;;1.73;0.82;;;18.80;86.00;;;19.25;80.11;100908.41;5201450;28;20069;-50
2023/07/13 01:07:01;;;;;;;1.15;0.60;;;18.80;86.50;;;19.24;80.53;100911.94;5201064;28;20049;-49
2023/07/13 01:09:35;;;;;;;0.75;0.55;;;18.80;86.80;;;19.22;80.89;100914.53;5201141;28;20434;-49
2023/07/13 01:12:09;;;;;;;1.95;0.60;;;18.80;87.10;;;19.19;81.18;100919.84;5201108;28;20143;-48
2023/07/13 01:14:45;;;;;;;0.80;0.65;;;18.80;87.30;;;19.16;81.67;100917.16;5200862;28;20352;-50
2023/07/13 01:17:17;;;;;;;1.05;0.68;;;18.80;87.80;;;19.13;81.99;100919.81;5201204;28;20049;-49
2023/07/13 01:19:50;;;;;;;1.27;0.63;;;18.70;88.10;;;19.09;82.12;100922.44;5202470;28;20041;-49
2023/07/13 01:22:26;;;;;;;1.10;0.60;;;18.70;88.20;;;19.06;82.07;100920.69;5200803;28;20672;-48
2023/07/13 01:25:03;;;;;;;1.60;0.60;;;18.60;88.30;;;19.02;82.52;100924.19;5201068;28;20046;-48
2023/07/13 01:27:35;;;;;;;1.25;0.60;;;18.60;88.60;;;18.99;82.78;100926.84;5200948;28;20049;-47
2023/07/13 01:30:09;;;;;;;1.02;0.63;;;18.60;88.90;;;18.94;82.85;100918.91;5200943;28;20056;-49
2023/07/13 01:32:42;;;;;;;1.30;0.50;;;18.50;89.00;;;18.92;83.03;100925.06;5200799;28;20061;-48
2023/07/13 01:35:16;;;;;;;1.17;0.70;;;18.50;89.30;;;18.89;83.49;100922.41;5217450;28;20092;-48
2023/07/13 01:37:50;;;;;;;1.13;0.68;;;18.50;89.70;;;18.87;83.47;100921.53;5200440;28;20049;-49
2023/07/13 01:40:22;;;;;;;0.77;0.60;;;18.50;89.80;;;18.84;82.32;100918.84;5202316;28;20060;-49
2023/07/13 01:42:59;;;;;;;0.98;0.80;;;18.40;89.00;;;18.82;82.23;100917.97;5205083;28;20371;-49
2023/07/13 01:45:32;;;;;;;1.77;0.70;;;18.40;89.00;;;18.81;82.64;100914.47;5205010;28;20068;-48
2023/07/13 01:48:06;;;;;;;1.42;0.70;;;18.40;89.20;;;18.79;82.87;100918.88;5205009;28;20414;-49
2023/07/13 01:50:38;;;;;;;0.90;0.50;;;18.40;89.60;;;18.78;83.61;100916.19;5204616;28;20132;-49
2023/07/13 01:53:15;;;;;;;1.20;0.70;;;18.40;90.10;;;18.77;84.41;100915.31;5204835;28;20068;-49
2023/07/13 01:55:48;;;;;;;1.00;0.65;;;18.40;90.40;;;18.75;84.00;100919.72;5198383;28;20041;-47
2023/07/13 01:58:21;;;;;;;2.47;0.45;;;18.30;90.30;;;18.75;84.51;100918.84;5204817;28;20050;-48
2023/07/13 02:00:53;;;;;;;0.60;0.50;;;18.30;90.50;;;18.75;84.60;100921.47;5204971;28;20045;-48
2023/07/13 02:03:27;;;;;;;2.03;0.60;;;18.30;90.50;;;18.74;83.40;100927.66;5204690;28;20064;-47
2023/07/13 02:05:59;;;;;;;1.10;0.60;;;18.30;90.20;;;18.73;83.55;100928.53;5204544;28;20050;-48
2023/07/13 02:08:34;;;;;;;0.50;0.47;;;18.30;90.30;;;18.72;84.51;100916.22;5205838;28;20403;-49
2023/07/13 02:11:06;;;;;;;1.58;0.47;;;18.30;90.60;;;18.68;84.67;100921.47;5204742;28;20095;-48
2023/07/13 02:13:39;;;;;;;0.60;0.60;;;18.30;90.80;;;18.65;85.18;100926.72;5204528;28;20480;-48
2023/07/13 02:16:11;;;;;;;1.10;0.55;;;18.30;91.00;;;18.61;85.93;100929.31;5221108;28;20045;-48
2023/07/13 02:18:44;;;;;;;1.20;0.93;;;18.20;91.20;;;18.59;85.91;100934.59;5204214;28;20462;-49
2023/07/13 02:21:16;;;;;;;0.85;0.50;;;18.20;91.30;;;18.55;86.52;100924.91;5204000;28;20045;-48
2023/07/13 02:23:50;;;;;;;1.33;0.70;;;18.20;91.50;;;18.54;86.76;100931.06;5196591;28;20529;-49
2023/07/13 02:26:22;;;;;;;2.08;0.60;;;18.10;91.60;;;18.50;86.99;100931.91;5204201;28;20045;-49
2023/07/13 02:28:55;;;;;;;2.25;0.80;;;18.10;91.80;;;18.45;87.49;100928.34;5204247;28;20410;-48
2023/07/13 02:31:27;;;;;;;1.17;0.65;;;18.10;92.00;;;18.41;88.14;100931.88;5205507;28;20523;-47
2023/07/13 02:34:00;;;;;;;1.02;0.73;;;18.00;92.30;;;18.39;88.46;100933.63;5220790;28;20048;-47
2023/07/13 02:36:33;;;;;;;1.30;0.80;;;18.00;92.50;;;18.38;88.25;100924.81;5203827;28;20056;-49
2023/07/13 02:39:07;;;;;;;1.13;0.65;;;18.00;92.50;;;18.40;87.88;100932.75;5203946;28;20046;-47
2023/07/13 02:41:42;;;;;;;1.17;0.55;;;18.00;92.50;;;18.43;87.68;100930.09;5203854;28;20469;-47
2023/07/13 02:44:15;;;;;;;2.15;0.70;;;18.00;92.40;;;18.44;87.40;100927.47;5203703;28;20045;-48
2023/07/13 02:46:47;;;;;;;0.57;0.50;;;18.00;92.40;;;18.47;87.40;100936.31;5205407;28;20131;-49
2023/07/13 02:49:20;;;;;;;1.27;0.55;;;18.10;92.40;;;18.48;87.21;100919.59;5204951;28;20060;-47
2023/07/13 02:51:52;;;;;;;0.88;0.60;;;18.10;92.40;;;18.47;86.96;100921.34;5203617;28;20046;-47
2023/07/13 02:54:26;;;;;;;1.05;0.60;;;18.00;92.30;;;18.48;87.07;100928.38;5203717;28;20129;-48
2023/07/13 02:56:59;;;;;;;1.67;0.60;;;18.10;92.40;;;18.50;86.77;100926.63;5203822;28;20045;-48
2023/07/13 02:59:32;;;;;;;1.30;0.80;;;18.10;92.40;;;18.49;86.89;100929.25;5203570;28;20410;-49
2023/07/13 03:02:05;;;;;;;1.38;0.68;;;18.10;92.40;;;18.49;86.96;100935.41;5203582;28;20144;-47
2023/07/13 03:04:39;;;;;;;1.48;1.00;;;18.10;92.50;;;18.51;86.98;100944.22;5203655;28;20482;-48
2023/07/13 03:07:11;;;;;;;2.08;0.80;;;18.10;92.50;;;18.51;86.89;100943.34;5204721;28;20045;-47
2023/07/13 03:09:45;;;;;;;2.25;0.80;;;18.10;92.50;;;18.49;85.87;100938.06;5204981;28;20449;-48
2023/07/13 03:12:18;;;;;;;2.00;0.63;;;18.10;92.20;;;18.46;85.52;100940.69;5203287;28;20486;-48
2023/07/13 03:14:50;;;;;;;2.60;0.77;;;18.10;92.10;;;18.44;85.57;100937.16;5203411;28;20095;-48
2023/07/13 03:17:22;;;;;;;1.35;0.80;;;18.10;92.30;;;18.44;85.43;100943.31;5203305;28;20859;-47
2023/07/13 03:19:55;;;;;;;2.05;0.73;;;18.00;92.10;;;18.42;84.50;100954.75;5203207;28;20148;-48
2023/07/13 03:22:28;;;;;;;1.05;0.73;;;18.00;91.80;;;18.35;84.57;100952.94;5203314;28;20168;-48
2023/07/13 03:25:02;;;;;;;2.70;0.70;;;18.00;91.70;;;18.35;83.42;100963.50;5203002;28;20038;-48
2023/07/13 03:27:34;;;;;;;2.65;0.80;;;18.00;91.50;;;18.35;83.30;100958.22;5203134;28;20056;-49
2023/07/13 03:30:10;;;;;;;2.38;0.80;;;18.00;91.40;;;18.36;83.09;100965.28;5202990;28;20625;-47
2023/07/13 03:32:43;;;;;;;1.95;0.80;;;18.00;91.30;;;18.33;83.25;100966.16;5202765;28;20037;-48
2023/07/13 03:35:15;;;;;;;1.95;0.95;;;18.00;91.20;;;18.36;83.28;100962.63;5202881;28;20041;-48
2023/07/13 03:37:48;;;;;;;2.95;0.98;;;18.00;91.40;;;18.39;83.10;100966.19;5202796;28;20400;-48
2023/07/13 03:40:26;;;;;;;1.40;0.80;;;18.00;91.30;;;18.44;83.00;100974.97;5202586;28;20060;-47
2023/07/13 03:43:02;;;;;;;2.75;1.00;;;18.00;91.30;;;18.46;82.85;100977.66;5202946;28;20103;-48
2023/07/13 03:45:36;;;;;;;1.27;0.70;;;18.10;91.30;;;18.50;83.34;100974.13;5202721;28;20053;-47
2023/07/13 03:48:08;;;;;;;0.77;0.60;;;18.10;91.40;;;18.55;83.46;100976.81;5202558;28;20148;-49
2023/07/13 03:50:41;;;;;;;0.60;0.60;;;18.20;91.50;;;18.58;83.41;100972.44;5202607;28;20049;-47
2023/07/13 03:53:18;;;;;;;2.15;0.60;;;18.20;91.50;;;18.62;83.61;100982.13;5202576;28;20046;-47
2023/07/13 03:55:53;;;;;;;0.55;0.50;;;18.20;91.50;;;18.65;83.34;100978.63;5202462;28;20053;-47
2023/07/13 03:58:30;;;;;;;0.65;0.47;;;18.30;91.50;;;18.68;82.68;100984.81;5202286;28;20049;-48
2023/07/13 04:01:12;;;;;;;1.60;0.60;;;18.30;91.30;;;18.68;82.48;100987.47;5202443;28;20534;-48
2023/07/13 04:03:46;;;;;;;1.13;0.70;;;18.30;91.20;;;18.72;82.01;100990.13;5201536;28;20041;-47
2023/07/13 04:06:22;;;;;;;1.90;0.75;;;18.30;91.10;;;18.74;81.67;100988.38;5202335;28;20104;-47
2023/07/13 04:08:57;;;;;;;1.30;0.50;;;18.30;91.00;;;18.74;81.96;100988.38;5202150;28;20115;-48
2023/07/13 04:11:36;;;;;;;1.10;0.57;;;18.40;91.10;;;18.73;82.40;100987.50;5202421;28;20119;-47
2023/07/13 04:14:08;;;;;;;1.10;0.65;;;18.30;91.20;;;18.72;82.31;100987.50;5202123;28;20507;-48
2023/07/13 04:16:40;;;;;;;1.50;0.70;;;18.30;91.20;;;18.68;82.21;100995.38;5201875;28;20069;-49
2023/07/13 04:19:16;;;;;;;1.90;0.70;;;18.30;91.10;;;18.67;82.30;100991.00;5201918;28;20057;-48
2023/07/13 04:21:49;;;;;;;3.40;1.10;;;18.30;91.20;;;18.65;82.52;100995.34;5201861;28;20041;-48
2023/07/13 04:24:21;;;;;;;1.77;0.65;;;18.30;91.20;;;18.66;83.09;100991.88;5201769;28;20053;-48
2023/07/13 04:26:56;;;;;;;2.15;0.70;;;18.30;91.50;;;18.69;83.45;100991.88;5201690;28;20038;-47
2023/07/13 04:29:32;;;;;;;1.80;0.70;;;18.30;91.60;;;18.72;83.57;100988.38;5201488;28;20415;-48
2023/07/13 04:32:05;;;;;;;1.17;0.60;;;18.30;91.70;;;18.77;83.64;100988.38;5201596;28;20525;-47
2023/07/13 04:34:38;;;;;;;3.50;0.80;;;18.30;91.70;;;18.86;83.34;100994.59;5201942;28;20038;-47
2023/07/13 04:37:10;;;;;;;1.52;0.70;;;18.40;91.70;;;18.97;82.71;100997.25;5201867;28;20049;-47
2023/07/13 04:39:42;;;;;;;1.77;0.80;;;18.50;91.50;;;19.03;82.28;100996.41;5201441;28;20053;-47
2023/07/13 04:42:16;;;;;;;3.53;0.90;;;18.60;91.30;;;19.06;82.12;100992.03;5202841;28;20395;-49
2023/07/13 04:44:49;;;;;;;2.47;0.95;;;18.60;91.30;;;19.16;81.72;100995.56;5201677;28;20088;-49
2023/07/13 04:47:22;;;;;;;3.05;0.90;;;18.70;91.20;;;19.18;81.82;100997.34;5201351;28;20053;-47
2023/07/13 04:49:54;;;;;;;1.40;0.73;;;18.70;91.20;;;19.23;81.81;100994.69;5201518;28;20060;-47
2023/07/13 04:52:27;;;;;;;2.22;1.15;;;18.80;91.20;;;19.32;81.74;100993.84;5201521;28;20413;-48
2023/07/13 04:55:00;;;;;;;1.73;0.70;;;18.80;91.20;;;20.25;80.53;101002.72;5201418;28;20507;-48
2023/07/13 04:57:37;;;;;;;2.08;0.60;;;19.30;91.60;;;22.32;74.40;101005.16;5201527;28;20048;-48
2023/07/13 05:00:12;;;;;;;3.72;0.73;;;20.60;90.50;;;24.46;67.89;100996.78;5201446;28;20045;-49
2023/07/13 05:02:46;;;;;;;2.75;0.75;;;22.30;86.50;;;26.40;62.09;101004.81;5201379;28;20518;-48
2023/07/13 05:05:18;;;;;;;2.05;0.60;;;24.10;80.80;;;28.05;57.51;101010.50;5201220;28;20676;-49
2023/07/13 05:07:51;;;;;;;2.08;0.68;;;25.60;75.40;;;29.45;54.04;101012.50;5201260;28;20164;-48
2023/07/13 05:10:24;;;;;;;2.45;0.68;;;27.00;71.80;;;30.69;51.63;101013.53;5201416;28;20045;-49
2023/07/13 05:12:58;;;;;;;1.70;0.52;;;28.20;68.40;;;31.73;49.44;101013.09;5180969;28;20049;-50
2023/07/13 05:15:30;;;;;;;2.47;0.75;;;29.30;65.00;;;32.61;47.21;101018.50;5180796;28;20033;-50
2023/07/13 05:18:02;;;;;;;2.08;0.50;;;30.10;62.20;;;33.33;45.80;101019.97;5194018;28;20049;-50
2023/07/13 05:20:35;;;;;;;3.58;0.77;;;30.90;60.10;;;33.98;44.11;101018.03;5202465;28;20053;-50
2023/07/13 05:23:07;;;;;;;3.65;0.73;;;31.50;58.30;;;34.62;43.34;101032.19;5201014;28;20053;-49
2023/07/13 05:25:40;;;;;;;2.03;0.75;;;32.10;56.80;;;35.16;42.20;101027.88;5200828;28;20041;-50
2023/07/13 05:28:14;;;;;;;5.05;0.70;;;32.60;55.70;;;35.58;40.99;101036.91;5200901;28;20049;-51
2023/07/13 05:30:47;;;;;;;;;;;33.00;54.40;;;35.92;41.08;101037.41;5201092;28;20045;-51
2023/07/13 05:33:22;;;;;;;1.45;0.65;;;33.40;53.60;;;36.42;40.09;101031.25;5200827;28;19925;-49
2023/07/13 05:35:55;;;;;;;2.20;0.73;;;33.90;52.90;;;36.85;39.24;101044.53;5200900;28;20060;-50
2023/07/13 05:38:28;;;;;;;2.83;0.70;;;34.20;51.90;;;37.16;38.55;101040.47;5200879;28;20060;-51
2023/07/13 05:41:00;;;;;;;0.80;0.50;;;34.50;51.20;;;37.58;37.83;101039.19;5200955;28;20269;-50
2023/07/13 05:43:37;;;;;;;4.32;0.82;;;34.90;50.30;;;37.80;37.11;101043.03;5200822;28;20046;-50
2023/07/13 05:46:10;;;;;;;6.18;0.93;;;35.20;49.60;;;37.81;37.14;101039.31;5200680;28;20104;-50
2023/07/13 05:48:42;;;;;;;2.80;0.70;;;35.30;49.40;;;37.28;37.79;101046.84;5217118;28;20041;-49
2023/07/13 05:51:15;;;;;;;4.75;0.80;;;35.00;49.40;;;37.77;37.50;101052.28;5200251;28;20058;-50
2023/07/13 05:53:47;;;;;;;2.70;0.85;;;35.20;49.50;;;38.06;36.74;101043.75;5199373;28;20054;-51
2023/07/13 05:56:19;;;;;;;3.10;0.73;;;35.40;48.70;;;37.18;37.95;101052.97;5200623;28;20041;-50
2023/07/13 05:58:53;;;;;;;3.10;0.70;;;35.00;49.00;;;36.89;38.38;101056.91;5200735;28;20055;-51
2023/07/13 06:01:26;;;;;;;2.22;0.82;;;34.60;49.40;;;36.86;38.61;101046.25;5200495;28;20053;-51
2023/07/13 06:03:58;;;;;;;3.63;0.70;;;34.50;49.40;;;37.40;37.76;101057.72;5200301;28;20049;-51
2023/07/13 06:06:30;;;;;;;2.92;0.73;;;34.80;49.60;;;38.31;36.90;101059.97;5200470;28;20099;-50
2023/07/13 06:09:03;;;;;;;4.82;0.82;;;35.40;48.80;;;38.24;36.39;101073.16;5200355;28;20092;-49
2023/07/13 06:11:38;;;;;;;1.25;0.63;;;35.60;48.10;;;36.37;38.23;101071.38;5200551;28;20053;-49
2023/07/13 06:14:12;;;;;;;3.17;0.82;;;34.60;48.40;;;35.04;40.28;101069.31;5200717;28;20053;-49
2023/07/13 06:16:45;;;;;;;1.02;0.63;;;33.60;49.70;;;35.16;40.75;101075.78;5200259;28;20108;-51
2023/07/13 06:19:17;;;;;;;3.35;0.77;;;33.20;50.50;;;35.80;40.20;101066.16;5200107;28;20085;-49
2023/07/13 06:21:50;;;;;;;2.60;0.88;;;33.40;50.70;;;36.32;39.10;101079.84;5200208;28;20442;-50
2023/07/13 06:24:23;;;;;;;3.47;0.73;;;33.80;49.80;;;36.16;39.19;101068.28;5200325;28;20056;-50
2023/07/13 06:26:55;;;;;;;3.90;0.90;;;33.80;49.90;;;35.26;40.24;101082.34;5202637;28;20041;-50
2023/07/13 06:29:29;;;;;;;2.92;0.80;;;33.30;50.30;;;34.35;41.46;101076.19;5204259;28;20076;-50
2023/07/13 06:32:02;;;;;;;1.10;0.77;;;32.70;51.00;;;33.59;42.80;101073.44;5204296;28;20053;-49
2023/07/13 06:34:34;;;;;;;2.28;0.75;;;32.00;51.70;;;32.88;43.96;101083.66;5204267;28;20045;-49
2023/07/13 06:37:07;;;;;;;2.70;0.98;;;31.40;52.60;;;32.04;45.27;101080.75;5205330;28;20364;-49
2023/07/13 06:39:40;;;;;;;3.70;0.90;;;30.80;53.50;;;31.73;46.36;101078.66;5204249;28;20056;-49
2023/07/13 06:42:12;;;;;;;1.52;0.80;;;30.30;54.60;;;32.39;45.97;101073.56;5203764;28;20054;-49
2023/07/13 06:44:47;;;;;;;2.45;0.70;;;30.50;55.20;;;33.81;43.70;101083.88;5203988;28;20061;-51
2023/07/13 06:47:19;;;;;;;2.53;0.60;;;31.30;54.40;;;35.02;42.19;101082.09;5203900;28;20052;-51
2023/07/13 06:49:52;;;;;;;2.58;0.73;;;32.20;53.20;;;35.80;41.17;101083.34;5203728;28;20623;-50
2023/07/13 06:52:24;;;;;;;3.42;0.85;;;33.00;52.10;;;35.42;40.82;101088.56;5203725;28;20087;-50
2023/07/13 06:54:56;;;;;;;1.42;0.73;;;33.10;51.60;;;34.50;42.06;101087.97;5203856;28;20450;-48
2023/07/13 06:57:29;;;;;;;3.40;0.88;;;32.60;51.90;;;33.88;43.29;101085.25;5203646;28;20128;-48
2023/07/13 07:00:03;;;;;;;2.97;0.77;;;32.10;52.60;;;33.82;43.55;101090.16;5200877;28;20050;-48
2023/07/13 07:02:36;;;;;;;3.63;0.90;;;31.90;53.10;;;34.17;42.94;101086.31;5203687;28;20056;-49
2023/07/13 07:05:08;;;;;;;3.05;0.82;;;32.00;53.10;;;34.36;42.81;101085.19;5220362;28;20045;-49
2023/07/13 07:07:43;;;;;;;5.68;1.10;;;32.10;53.00;;;34.03;43.21;101093.47;5203414;28;20049;-48
2023/07/13 07:10:16;;;;;;;1.77;0.70;;;32.00;53.20;;;33.08;44.84;101083.44;5203857;28;20522;-49
2023/07/13 07:12:49;;;;;;;4.75;0.70;;;31.50;53.70;;;31.72;46.75;101090.38;5203211;28;20049;-49
2023/07/13 07:15:22;;;;;;;3.00;0.75;;;30.60;54.70;;;30.50;49.02;101086.06;5214307;28;20057;-48
2023/07/13 07:17:54;;;;;;;;;;;29.60;56.10;;;29.71;50.87;101095.63;5203576;28;20053;-48
2023/07/13 07:20:27;;;;;;;4.05;1.00;;;28.90;57.60;;;29.19;51.74;101094.91;5203059;28;20394;-48
2023/07/13 07:22:59;;;;;;;3.40;0.75;;;28.30;58.50;;;28.76;52.81;101095.63;5203221;28;20144;-48
2023/07/13 07:25:34;;;;;;;2.55;0.82;;;27.80;59.50;;;28.32;53.87;101090.00;5202510;28;20042;-48
2023/07/13 07:28:07;;;;;;;4.25;1.13;;;27.40;60.30;;;27.83;54.90;101091.56;5202703;28;20049;-48
2023/07/13 07:30:43;;;;;;;3.50;1.00;;;26.90;61.00;;;27.26;55.88;101095.09;5202477;28;20045;-47
2023/07/13 07:33:16;;;;;;;3.35;0.95;;;26.40;61.80;;;26.68;56.96;101104.75;5196307;28;20084;-47
2023/07/13 07:35:49;;;;;;;2.40;0.93;;;25.90;62.70;;;26.07;58.46;101086.69;5202761;28;20046;-47
2023/07/13 07:38:21;;;;;;;3.90;0.90;;;25.40;64.00;;;25.73;59.74;101086.63;5218218;28;20534;-48
2023/07/13 07:40:54;;;;;;;1.98;0.90;;;25.00;65.20;;;25.65;60.78;101089.44;5202567;28;20049;-48
2023/07/13 07:43:26;;;;;;;2.70;1.05;;;24.80;66.20;;;25.78;61.42;101090.06;5202867;28;20793;-47
2023/07/13 07:46:00;;;;;;;2.45;0.80;;;24.90;66.90;;;25.99;61.10;101094.88;5202622;28;20495;-47
2023/07/13 07:48:32;;;;;;;2.42;0.80;;;25.00;67.00;;;26.11;60.26;101088.38;5202280;28;20076;-47
2023/07/13 07:51:05;;;;;;;2.92;0.90;;;25.10;66.40;;;26.12;60.53;101088.34;5202620;28;20538;-48
2023/07/13 07:53:37;;;;;;;2.13;0.93;;;25.20;66.60;;;26.33;60.61;101094.03;5202208;28;20395;-48
2023/07/13 07:56:10;;;;;;;2.30;0.80;;;25.30;66.90;;;26.51;60.44;101093.59;5202059;28;20045;-49
2023/07/13 07:58:42;;;;;;;3.67;1.00;;;25.50;66.80;;;26.72;59.93;101095.69;5201804;28;20045;-52
2023/07/13 08:01:16;;;;;;;2.38;0.77;;;25.60;66.60;;;26.97;59.20;101092.34;5202124;28;20534;-48
2023/07/13 08:03:51;;;;;;;3.92;1.08;;;25.80;66.30;;;27.15;58.20;101085.63;5202388;28;20565;-53
2023/07/13 08:06:24;;;;;;;3.28;1.00;;;26.00;65.40;;;27.28;58.76;101082.53;5201942;28;20136;-45
2023/07/13 08:08:57;;;;;;;1.08;0.70;;;26.10;65.80;;;27.54;57.82;101088.91;5201667;28;20037;-45
2023/07/13 08:11:29;;;;;;;2.22;0.60;;;26.30;65.60;;;27.72;57.00;101088.38;5201441;28;20049;-44
2023/07/13 08:14:02;;;;;;;2.70;0.80;;;26.40;64.80;;;27.80;57.09;101091.69;5201870;28;20511;-44
2023/07/13 08:16:35;;;;;;;1.20;0.80;;;26.50;64.90;;;27.85;56.91;101095.09;5218070;28;20041;-47
2023/07/13 08:19:08;;;;;;;2.17;0.80;;;26.50;64.60;;;28.00;56.55;101083.00;5201812;28;20057;-48
2023/07/13 08:21:44;;;;;;;3.20;0.80;;;26.60;64.60;;;28.24;56.30;101097.41;5201834;28;20045;-48
2023/07/13 08:24:18;;;;;;;3.70;0.70;;;26.70;64.80;;;28.20;56.56;101084.13;5201911;28;20109;-48
2023/07/13 08:26:52;;;;;;;3.03;0.85;;;26.60;64.90;;;28.19;56.38;101077.91;5201812;28;20045;-48
2023/07/13 08:29:24;;;;;;;5.10;1.10;;;26.60;64.90;;;28.03;55.79;101084.69;5218397;28;20061;-48
2023/07/13 08:31:59;;;;;;;2.70;0.80;;;26.40;64.60;;;28.06;56.30;101081.94;5218097;28;20049;-49
2023/07/13 08:34:31;;;;;;;2.58;0.70;;;26.20;64.90;;;28.72;55.70;101083.22;5201691;28;20495;-49
2023/07/13 08:37:04;;;;;;;1.60;0.68;;;26.40;65.70;;;29.57;54.41;101078.31;5201507;28;20041;-49
2023/07/13 08:39:43;;;;;;;2.85;0.70;;;26.70;65.60;;;30.84;51.71;101075.66;5199442;28;20067;-48
2023/07/13 08:42:30;;;;;;;3.42;0.95;;;27.40;64.60;;;32.13;49.38;101082.97;5213523;28;20052;-48
2023/07/13 08:45:16;;;;;;;1.85;0.90;;;28.10;63.60;;;33.15;47.87;101079.44;5198681;28;20434;-49
2023/07/13 08:47:55;;;;;;;1.50;0.80;;;28.90;62.30;;;34.12;46.18;101071.31;5215373;28;20050;-49
2023/07/13 08:50:35;;;;;;;1.70;0.82;;;29.70;61.00;;;35.42;44.23;101066.88;5198609;28;20041;-49
2023/07/13 08:53:12;;;;;;;3.95;0.85;;;30.80;59.10;;;36.23;42.25;101072.31;5191129;28;20046;-48
2023/07/13 08:55:45;;;;;;;3.83;0.90;;;31.70;57.00;;;36.45;41.38;101071.72;5199002;28;20506;-49
2023/07/13 08:58:19;;;;;;;2.22;0.80;;;32.30;55.60;;;35.97;41.49;101078.66;5201197;28;20065;-50
2023/07/13 09:01:12;;;;;;;2.60;0.80;;;32.30;55.10;;;35.59;42.48;101066.63;5217613;28;20053;-48
2023/07/13 09:03:55;;;;;;;3.80;0.77;;;32.20;55.10;;;34.96;42.56;101077.06;5217626;28;20048;-50
2023/07/13 09:06:45;;;;;;;2.00;0.60;;;31.90;54.80;;;33.73;43.83;101073.50;5201153;28;20087;-48
2023/07/13 09:09:27;;;;;;;2.95;0.90;;;31.20;55.10;;;32.92;45.67;101069.88;5194398;28;20045;-49
2023/07/13 09:12:11;;;;;;;1.92;0.98;;;30.50;56.50;;;32.33;46.50;101067.63;5200619;28;20048;-48
2023/07/13 09:14:48;;;;;;;2.80;0.90;;;30.10;57.20;;;31.95;47.00;101070.44;5201040;28;20041;-48
2023/07/13 09:17:25;;;;;;;2.17;0.98;;;29.70;57.50;;;31.66;48.01;101068.25;5217341;28;20044;-48
2023/07/13 09:20:04;;;;;;;2.92;0.77;;;29.40;58.30;;;31.24;48.49;101081.03;5200586;28;20566;-48
2023/07/13 09:22:38;;;;;;;2.38;0.60;;;29.20;58.80;;;30.28;49.74;101069.13;5201154;28;20131;-48
2023/07/13 09:25:26;;;;;;;2.63;1.00;;;28.60;59.20;;;30.10;51.10;101067.22;5193117;28;20041;-48
2023/07/13 09:28:11;;;;;;;3.20;0.98;;;28.30;60.30;;;30.40;51.13;101076.66;5200994;28;20096;-47
2023/07/13 09:30:57;;;;;;;2.33;0.70;;;28.30;60.90;;;30.58;50.79;101072.28;5198933;28;20045;-47
2023/07/13 09:33:31;;;;;;;3.25;0.80;;;28.50;60.70;;;30.28;50.63;101063.75;5216950;28;20067;-48
2023/07/13 09:36:23;;;;;;;2.28;0.80;;;28.40;60.30;;;29.95;51.54;101074.94;5200441;28;20128;-48
2023/07/13 09:39:05;;;;;;;3.30;0.90;;;28.30;60.80;;;29.73;51.64;101068.69;5199817;28;20073;-48
2023/07/13 09:41:47;;;;;;;2.10;0.70;;;28.20;60.70;;;29.59;52.72;101071.06;5200289;28;20080;-48
2023/07/13 09:44:30;;;;;;;4.00;1.17;;;28.20;61.30;;;29.36;53.03;101072.81;5201652;28;20419;-47
2023/07/13 09:47:04;;;;;;;3.42;0.85;;;28.10;61.20;;;29.05;53.22;101070.41;5200452;28;20132;-47
2023/07/13 09:49:38;;;;;;;3.00;0.93;;;27.90;61.30;;;28.83;54.17;101058.72;5196001;28;20053;-47
2023/07/13 09:52:16;;;;;;;2.15;0.75;;;27.80;62.00;;;28.77;54.75;101059.81;5179006;28;20057;-47
2023/07/13 09:54:58;;;;;;;3.58;0.90;;;27.70;62.40;;;28.66;55.28;101072.72;5214341;28;20056;-48
2023/07/13 09:57:31;;;;;;;2.67;0.90;;;27.60;62.70;;;28.26;54.48;101079.44;5201107;28;20041;-47
2023/07/13 10:00:25;;;;;;;2.90;0.80;;;27.40;62.20;;;28.14;56.07;101063.78;5198265;28;20570;-47
2023/07/13 10:03:04;;;;;;;2.72;0.98;;;27.20;63.30;;;28.15;56.34;101060.16;5202115;28;20057;-48
2023/07/13 10:05:42;;;;;;;3.00;1.15;;;27.10;63.70;;;27.96;56.23;101069.75;5203106;28;20384;-47
2023/07/13 10:08:27;;;;;;;1.42;0.88;;;27.00;63.50;;;27.63;56.75;101072.53;5200762;28;20037;-50
2023/07/13 10:11:04;;;;;;;3.42;1.00;;;26.80;63.70;;;27.40;57.57;101070.59;5200770;28;20344;-50
2023/07/13 10:13:40;;;;;;;2.42;0.80;;;26.60;64.10;;;27.30;58.53;101064.63;5202404;28;20038;-50
2023/07/13 10:16:14;;;;;;;2.72;0.75;;;26.50;65.10;;;27.13;58.70;101072.31;5203153;28;20069;-51
2023/07/13 10:18:49;;;;;;;;;;;26.40;65.30;;;26.83;59.00;101089.19;5203704;28;20056;-50
2023/07/13 10:21:24;;;;;;;2.92;0.85;;;26.10;65.30;;;26.65;59.53;101078.06;5203328;28;19931;-50
2023/07/13 10:24:14;;;;;;;4.28;1.00;;;25.90;65.70;;;26.47;59.71;101081.22;5202103;28;20049;-50
2023/07/13 10:26:55;;;;;;;2.47;1.00;;;25.80;66.60;;;26.43;60.34;101074.22;5202748;28;20056;-51
2023/07/13 10:29:30;;;;;;;1.63;0.80;;;25.70;66.40;;;26.67;60.48;101075.34;5202288;28;20115;-50
2023/07/13 10:32:11;;;;;;;2.38;0.70;;;25.80;66.80;;;26.91;59.98;101079.16;5217897;28;20060;-51
2023/07/13 10:34:47;;;;;;;3.47;1.23;;;26.00;66.90;;;26.98;59.39;101078.03;5203164;28;20430;-50
2023/07/13 10:37:32;;;;;;;3.03;1.17;;;26.10;66.30;;;26.83;58.88;101086.50;5219813;28;20037;-51
2023/07/13 10:40:14;;;;;;;2.00;0.80;;;26.00;65.60;;;26.58;59.39;101088.97;5219100;28;20511;-50
2023/07/13 10:42:51;;;;;;;2.80;1.13;;;25.80;65.90;;;26.43;60.13;101091.13;5219577;28;20048;-50